To NAV CANADA Home Page Login to a new session Search on AWWS site Feedback and Comments Disclaimer Vers la page française équivalente Tips FAQ What's new on the site To the Forecasts and Observations / NOTAM section To "File a Flight Plan" website Publications and other links Update of the User's profile FIC Telephone Numbers My Weather Data Folder Route Weather Data Regional Weather Data Local Weather Data To the Forecasts and Observations / NOTAM section
Request Generated 03/28/2017 at 02:22:38 UTC . Weather information available at that time is displayed.

METAR/TAF

SLAVE LAKE/AB    (show WxCam)

METAR CYZH 280200Z AUTO 15010KT 9SM BKN150 OVC170 05/M01 A2988 RMK
SLP145=
METAR CYZH 280100Z AUTO 13012KT 9SM SCT085 BKN180 06/00 A2987 RMK
SLP140=
METAR CYZH 280000Z AUTO 12011KT 9SM FEW200 07/01 A2986 RMK SLP135=

TAF CYZH 280038Z 2801/2813 12010KT P6SM FEW020 FEW200
FM280600 10006KT P6SM SCT006 SCT200 TEMPO 2806/2813 4SM BR PROB30
2809/2813 1/2SM FZFG VV003
RMK FCST BASED ON AUTO OBS. NXT FCST BY 280700Z=
Your time UTC time
Weather data provided by Environment Canada and NAV CANADA